createdAt,value
2018-04-11T00:02:01.810Z,21.87
2018-04-11T00:04:29.172Z,22.30
2018-04-11T00:06:56.598Z,21.00
2018-04-11T00:09:23.980Z,21.60
2018-04-11T00:11:51.344Z,20.57
2018-04-11T00:14:18.740Z,22.43
2018-04-11T00:16:46.103Z,21.77
2018-04-11T00:19:13.504Z,22.00
2018-04-11T00:21:40.891Z,21.37
2018-04-11T00:24:08.254Z,21.13
2018-04-11T00:26:35.640Z,21.10
2018-04-11T00:29:03.027Z,21.63
2018-04-11T00:31:30.385Z,21.10
2018-04-11T00:33:57.745Z,20.07
2018-04-11T00:36:25.126Z,21.20
2018-04-11T00:38:52.505Z,21.23
2018-04-11T00:41:19.901Z,21.23
2018-04-11T00:43:47.310Z,20.27
2018-04-11T00:46:14.689Z,20.77
2018-04-11T00:48:42.090Z,20.90
2018-04-11T00:51:09.450Z,21.00
2018-04-11T00:53:36.865Z,22.43
2018-04-11T00:56:04.230Z,21.73
2018-04-11T00:58:31.635Z,23.40
2018-04-11T01:00:59.043Z,22.40
2018-04-11T01:03:26.438Z,22.47
2018-04-11T01:05:53.880Z,22.27
2018-04-11T01:08:21.241Z,22.60
2018-04-11T01:10:48.648Z,23.40
2018-04-11T01:13:16.039Z,23.07
2018-04-11T01:15:43.450Z,22.77
2018-04-11T01:18:10.812Z,21.60
2018-04-11T01:20:38.335Z,21.83
2018-04-11T01:23:05.724Z,22.93
2018-04-11T01:25:33.140Z,21.67
2018-04-11T01:28:00.553Z,21.80
2018-04-11T01:30:27.910Z,22.27
2018-04-11T01:32:55.279Z,23.07
2018-04-11T01:35:22.667Z,22.40
2018-04-11T01:37:50.040Z,22.10
2018-04-11T01:40:17.426Z,22.93
2018-04-11T01:42:44.795Z,21.97
2018-04-11T01:45:12.214Z,21.60
2018-04-11T01:47:39.598Z,20.83
2018-04-11T01:50:06.952Z,22.83
2018-04-11T01:52:34.344Z,23.67
2018-04-11T01:55:01.763Z,22.47
2018-04-11T01:57:29.128Z,24.37
2018-04-11T01:59:56.520Z,24.97
2018-04-11T02:02:23.884Z,25.23
2018-04-11T02:04:51.303Z,23.50
2018-04-11T02:07:18.664Z,24.73
2018-04-11T02:09:46.035Z,24.20
2018-04-11T02:12:13.437Z,24.03
2018-04-11T02:14:40.801Z,24.47
2018-04-11T02:17:08.172Z,25.33
2018-04-11T02:19:35.584Z,23.60
2018-04-11T02:22:02.948Z,24.57
2018-04-11T02:24:30.315Z,23.73
2018-04-11T02:26:57.728Z,24.50
2018-04-11T02:29:25.088Z,26.10
2018-04-11T02:31:52.478Z,26.17
2018-04-11T02:34:19.881Z,26.70
2018-04-11T02:36:47.244Z,26.67
2018-04-11T02:39:14.624Z,26.23
2018-04-11T02:41:42.016Z,25.97
2018-04-11T02:44:09.411Z,26.20
2018-04-11T02:46:36.784Z,26.47
2018-04-11T02:49:04.241Z,26.07
2018-04-11T02:51:31.664Z,24.97
2018-04-11T02:53:59.340Z,28.03
2018-04-11T02:56:26.696Z,25.83
2018-04-11T02:58:54.085Z,28.53
2018-04-11T03:01:21.452Z,26.77
2018-04-11T03:03:48.817Z,27.40
2018-04-11T03:06:16.203Z,27.63
2018-04-11T03:08:43.590Z,27.83
2018-04-11T03:11:10.988Z,27.90
2018-04-11T03:13:38.420Z,28.10
2018-04-11T03:16:05.776Z,27.33
2018-04-11T03:18:33.173Z,27.30
2018-04-11T03:21:00.539Z,28.53
2018-04-11T03:23:27.904Z,28.63
2018-04-11T03:25:55.299Z,28.80
2018-04-11T03:28:22.683Z,27.70
2018-04-11T03:30:50.063Z,27.70
2018-04-11T03:33:17.420Z,27.67
2018-04-11T03:35:44.799Z,27.60
2018-04-11T03:38:12.200Z,27.93
2018-04-11T03:40:39.557Z,28.00
2018-04-11T03:43:06.908Z,28.10
2018-04-11T03:45:34.300Z,28.37
2018-04-11T03:48:01.660Z,30.27
2018-04-11T03:50:29.051Z,30.50
2018-04-11T03:52:56.412Z,29.50
2018-04-11T03:55:23.772Z,30.00
2018-04-11T03:57:51.307Z,29.53
2018-04-11T04:00:18.662Z,28.17
2018-04-11T04:02:46.023Z,29.27
2018-04-11T04:05:13.429Z,29.80
2018-04-11T04:07:40.823Z,28.97
2018-04-11T04:10:08.284Z,27.77
2018-04-11T04:12:35.683Z,28.80
2018-04-11T04:15:08.930Z,29.00
2018-04-11T04:17:42.307Z,28.73
2018-04-11T04:20:28.488Z,28.07
2018-04-11T04:22:55.863Z,28.90
2018-04-11T04:25:23.219Z,28.67
2018-04-11T04:27:50.632Z,29.03
2018-04-11T04:30:17.992Z,29.83
2018-04-11T04:32:45.360Z,29.73
2018-04-11T04:35:12.754Z,30.90
2018-04-11T04:37:40.121Z,28.23
2018-04-11T04:40:07.483Z,30.43
2018-04-11T04:42:34.956Z,29.23
2018-04-11T04:45:02.321Z,29.63
2018-04-11T04:47:29.676Z,28.47
2018-04-11T04:49:57.072Z,29.20
2018-04-11T04:52:24.463Z,28.20
2018-04-11T04:54:51.845Z,27.63
2018-04-11T04:57:19.216Z,29.77
2018-04-11T04:59:46.615Z,27.07
2018-04-11T05:02:13.977Z,30.80
2018-04-11T05:04:41.369Z,29.13
2018-04-11T05:07:08.777Z,29.93
2018-04-11T05:09:36.144Z,27.93
2018-04-11T05:12:03.540Z,27.73
2018-04-11T05:14:31.180Z,28.07
2018-04-11T05:16:58.560Z,29.30
2018-04-11T05:19:25.915Z,28.70
2018-04-11T05:21:53.605Z,28.77
2018-04-11T05:24:20.962Z,29.33
2018-04-11T05:26:48.319Z,28.20
2018-04-11T05:29:15.719Z,29.53
2018-04-11T05:31:43.112Z,29.50
2018-04-11T05:34:10.468Z,29.70
2018-04-11T05:36:37.866Z,30.80
2018-04-11T05:39:05.254Z,29.17
2018-04-11T05:41:32.664Z,30.60
2018-04-11T05:44:00.165Z,29.53
2018-04-11T05:46:27.527Z,29.90
2018-04-11T05:48:54.899Z,29.80
2018-04-11T05:51:22.288Z,29.10
2018-04-11T05:53:49.648Z,29.33
2018-04-11T05:56:17.008Z,29.00
2018-04-11T05:58:44.424Z,29.13
2018-04-11T06:01:11.775Z,29.50
2018-04-11T06:03:39.132Z,29.67
2018-04-11T06:06:06.537Z,27.53
2018-04-11T06:08:33.928Z,28.47
2018-04-11T06:11:01.321Z,28.80
2018-04-11T06:13:28.676Z,28.10
2018-04-11T06:15:56.034Z,27.17
2018-04-11T06:18:23.441Z,28.23
2018-04-11T06:20:50.915Z,28.33
2018-04-11T06:23:18.303Z,29.53
2018-04-11T06:25:45.707Z,28.30
2018-04-11T06:28:13.091Z,27.90
2018-04-11T06:30:40.469Z,29.93
2018-04-11T06:33:07.891Z,28.60
2018-04-11T06:35:35.272Z,29.93
2018-04-11T06:38:02.664Z,29.37
2018-04-11T06:40:30.044Z,27.50
2018-04-11T06:42:57.479Z,28.93
2018-04-11T06:45:24.883Z,27.47
2018-04-11T06:47:52.289Z,28.33
2018-04-11T06:50:19.648Z,27.30
2018-04-11T06:52:47.056Z,27.80
2018-04-11T06:55:14.444Z,27.10
2018-04-11T06:57:41.811Z,28.47
2018-04-11T07:00:09.224Z,27.03
2018-04-11T07:02:36.595Z,30.03
2018-04-11T07:05:03.979Z,27.40
2018-04-11T07:07:31.392Z,28.50
2018-04-11T07:09:58.747Z,28.30
2018-04-11T07:12:26.107Z,27.43
2018-04-11T07:14:53.619Z,27.87
2018-04-11T07:17:20.980Z,28.73
2018-04-11T07:19:48.359Z,27.30
2018-04-11T07:22:15.765Z,27.23
2018-04-11T07:24:43.120Z,26.30
2018-04-11T07:27:10.483Z,26.57
2018-04-11T07:29:37.903Z,28.17
2018-04-11T07:32:05.251Z,28.67
2018-04-11T07:34:32.649Z,28.10
2018-04-11T07:37:00.055Z,26.93
2018-04-11T07:39:27.412Z,27.50
2018-04-11T07:41:54.818Z,28.13
2018-04-11T07:44:22.175Z,27.47
2018-04-11T07:46:49.537Z,28.70
2018-04-11T07:49:16.951Z,27.30
2018-04-11T07:51:44.315Z,28.33
2018-04-11T07:54:11.704Z,27.97
2018-04-11T07:56:39.061Z,27.30
2018-04-11T07:59:06.564Z,27.30
2018-04-11T08:01:33.932Z,26.40
2018-04-11T08:04:01.455Z,27.20
2018-04-11T08:06:28.850Z,26.43
2018-04-11T08:08:56.222Z,26.40
2018-04-11T08:11:23.585Z,28.00
2018-04-11T08:13:50.995Z,26.30
2018-04-11T08:16:18.378Z,26.30
2018-04-11T08:18:45.744Z,25.30
2018-04-11T08:21:13.165Z,25.53
2018-04-11T08:23:40.124Z,25.10
2018-04-11T08:26:07.507Z,24.00
2018-04-11T08:28:34.903Z,25.33
2018-04-11T08:31:02.287Z,24.90
2018-04-11T08:33:29.646Z,24.10
2018-04-11T08:35:57.047Z,26.00
2018-04-11T08:38:24.456Z,24.53
2018-04-11T08:40:51.810Z,25.80
2018-04-11T08:43:19.168Z,26.77
2018-04-11T08:45:46.572Z,25.30
2018-04-11T08:48:14.104Z,24.13
2018-04-11T08:50:41.472Z,24.80
2018-04-11T08:53:09.047Z,26.30
2018-04-11T08:55:36.412Z,26.30
2018-04-11T08:58:03.772Z,25.40
2018-04-11T09:00:31.156Z,24.63
2018-04-11T09:02:58.555Z,23.60
2018-04-11T09:05:25.950Z,23.77
2018-04-11T09:07:53.315Z,24.23
2018-04-11T09:10:20.736Z,23.93
2018-04-11T09:12:48.094Z,23.47
2018-04-11T09:15:15.448Z,23.33
2018-04-11T09:17:42.835Z,24.20
2018-04-11T09:20:10.195Z,24.30
2018-04-11T09:22:37.560Z,24.83
2018-04-11T09:25:04.969Z,23.93
2018-04-11T09:27:32.348Z,23.70
2018-04-11T09:32:57.872Z,21.23
2018-04-11T09:35:25.233Z,23.13
2018-04-11T09:37:52.600Z,22.30
2018-04-11T09:40:19.980Z,23.20
2018-04-11T09:42:47.361Z,24.57
2018-04-11T09:45:14.757Z,25.10
2018-04-11T09:47:42.119Z,24.27
2018-04-11T09:50:09.487Z,24.37
2018-04-11T09:52:36.875Z,24.20
2018-04-11T09:55:04.228Z,24.00
2018-04-11T09:57:31.596Z,22.70
2018-04-11T09:59:59.100Z,25.00
2018-04-11T10:02:26.463Z,25.67
2018-04-11T10:04:53.834Z,24.07
2018-04-11T10:07:21.224Z,25.17
2018-04-11T10:09:48.631Z,24.03
2018-04-11T10:12:16.030Z,24.43
2018-04-11T10:14:43.411Z,25.07
2018-04-11T10:17:10.814Z,24.07
2018-04-11T10:19:38.203Z,24.37
2018-04-11T10:22:05.552Z,25.40
2018-04-11T10:24:32.907Z,24.73
2018-04-11T10:27:00.308Z,24.80
2018-04-11T10:29:27.672Z,25.87
2018-04-11T10:31:55.057Z,24.70
2018-04-11T10:34:22.456Z,24.30
2018-04-11T10:36:49.816Z,24.30
2018-04-11T10:39:17.176Z,26.30
2018-04-11T10:41:44.589Z,27.30
2018-04-11T10:44:11.967Z,26.73
2018-04-11T10:46:39.331Z,25.73
2018-04-11T10:49:06.748Z,26.67
2018-04-11T10:51:34.117Z,25.47
2018-04-11T10:54:01.471Z,25.00
2018-04-11T10:56:28.859Z,26.20
2018-04-11T10:58:56.219Z,26.33
2018-04-11T11:01:23.584Z,26.73
2018-04-11T11:03:50.987Z,27.57
2018-04-11T11:06:18.529Z,27.10
2018-04-11T11:08:45.880Z,26.90
2018-04-11T11:11:13.237Z,26.90
2018-04-11T11:13:40.632Z,25.80
2018-04-11T11:16:08.043Z,26.40
2018-04-11T11:18:35.401Z,27.90
2018-04-11T11:21:02.784Z,28.53
2018-04-11T11:23:30.156Z,26.03
2018-04-11T11:25:57.519Z,25.80
2018-04-11T11:28:24.903Z,26.87
2018-04-11T11:30:52.254Z,27.77
2018-04-11T11:33:19.659Z,27.97
2018-04-11T11:35:47.023Z,25.37
2018-04-11T11:38:14.401Z,27.30
2018-04-11T11:40:41.820Z,26.67
2018-04-11T11:43:09.224Z,28.67
2018-04-11T11:45:36.604Z,26.00
2018-04-11T11:48:04.004Z,26.37
2018-04-11T11:50:31.368Z,25.53
2018-04-11T11:52:58.793Z,26.30
2018-04-11T11:55:26.220Z,26.43
2018-04-11T11:57:53.616Z,26.80
2018-04-11T12:00:20.983Z,28.07
2018-04-11T12:02:48.367Z,27.30
2018-04-11T12:05:15.723Z,26.87
2018-04-11T12:07:43.115Z,26.10
2018-04-11T12:10:10.511Z,30.90
2018-04-11T12:12:37.880Z,30.67
2018-04-11T12:15:05.253Z,28.80
2018-04-11T12:17:32.804Z,29.63
2018-04-11T12:20:00.156Z,31.07
2018-04-11T12:22:27.513Z,30.83
2018-04-11T12:24:54.908Z,30.07
2018-04-11T12:27:22.294Z,32.17
2018-04-11T12:29:49.673Z,31.40
2018-04-11T12:32:17.040Z,30.70
2018-04-11T12:34:44.432Z,30.07
2018-04-11T12:37:11.860Z,29.17
2018-04-11T12:39:39.229Z,31.07
2018-04-11T12:42:06.627Z,28.77
2018-04-11T12:44:33.993Z,31.57
2018-04-11T12:47:01.356Z,28.53
2018-04-11T12:49:28.758Z,29.97
2018-04-11T12:51:56.116Z,30.05
2018-04-11T13:06:37.516Z,28.70
2018-04-11T13:09:05.596Z,28.67
2018-04-11T13:11:33.021Z,29.37
2018-04-11T13:14:00.403Z,30.40
2018-04-11T13:16:27.928Z,29.83
2018-04-11T13:18:55.306Z,27.43
2018-04-11T13:21:22.688Z,26.23
2018-04-11T13:23:50.071Z,27.00
2018-04-11T13:26:17.515Z,26.27
2018-04-11T13:28:44.917Z,28.77
2018-04-11T13:31:12.463Z,30.17
2018-04-11T13:33:39.933Z,28.80
2018-04-11T13:36:07.360Z,29.03
2018-04-11T13:38:34.711Z,28.73
2018-04-11T13:41:02.251Z,30.30
2018-04-11T13:43:29.715Z,30.53
2018-04-11T13:45:57.071Z,30.67
2018-04-11T13:48:24.445Z,28.47
2018-04-11T13:50:51.856Z,26.50
2018-04-11T13:53:19.217Z,28.13
2018-04-11T13:55:46.777Z,26.00
2018-04-11T13:58:14.805Z,28.93
2018-04-11T14:00:42.201Z,29.53
2018-04-11T14:03:09.580Z,25.97
2018-04-11T14:05:36.983Z,26.80
2018-04-11T14:08:04.425Z,27.77
2018-04-11T14:10:32.099Z,28.97
2018-04-11T14:12:59.536Z,29.50
2018-04-11T14:15:27.033Z,26.73
2018-04-11T14:17:54.508Z,27.63
2018-04-11T14:20:21.923Z,26.93
2018-04-11T14:22:49.289Z,27.30
2018-04-11T14:25:16.713Z,27.87
2018-04-11T14:27:44.192Z,27.87
2018-04-11T14:30:11.607Z,27.00
2018-04-11T14:32:39.034Z,29.63
2018-04-11T14:35:06.459Z,29.03
2018-04-11T14:37:33.817Z,28.20
2018-04-11T14:40:01.491Z,28.90
2018-04-11T14:42:29.032Z,28.20
2018-04-11T14:44:56.441Z,28.73
2018-04-11T14:47:23.871Z,27.67
2018-04-11T14:49:51.286Z,28.27
2018-04-11T14:52:18.725Z,30.30
2018-04-11T14:54:46.112Z,28.13
2018-04-11T14:57:13.468Z,27.60
2018-04-11T14:59:40.992Z,28.10
2018-04-11T15:02:08.440Z,28.67
2018-04-11T15:04:35.885Z,27.63
2018-04-11T15:07:03.356Z,27.53
2018-04-11T15:09:30.808Z,27.90
2018-04-11T15:11:58.181Z,27.23
2018-04-11T15:14:25.592Z,28.73
2018-04-11T15:16:53.304Z,27.93
2018-04-11T15:19:20.685Z,28.20
2018-04-11T15:21:48.126Z,28.20
2018-04-11T15:24:15.528Z,27.20
2018-04-11T15:26:42.899Z,27.20
2018-04-11T15:29:10.625Z,28.17
2018-04-11T15:31:38.128Z,26.43
2018-04-11T15:34:05.704Z,25.80
2018-04-11T15:36:33.107Z,27.07
2018-04-11T15:39:01.454Z,26.87
2018-04-11T15:41:28.812Z,28.07
2018-04-11T15:43:56.288Z,26.87
2018-04-11T15:46:29.682Z,26.50
2018-04-11T15:48:57.370Z,27.07
2018-04-11T15:51:24.791Z,27.10
2018-04-11T15:53:52.281Z,28.57
2018-04-11T15:56:19.817Z,26.90
2018-04-11T15:58:47.572Z,27.47
2018-04-11T16:01:15.117Z,27.20
2018-04-11T16:03:42.511Z,30.03
2018-04-11T16:06:10.003Z,29.50
2018-04-11T16:08:37.366Z,28.90
2018-04-11T16:11:04.763Z,28.53
2018-04-11T16:13:32.127Z,28.60
2018-04-11T16:15:59.523Z,29.67
2018-04-11T16:18:26.928Z,28.40
2018-04-11T16:20:54.292Z,28.70
2018-04-11T16:23:21.695Z,29.67
2018-04-11T16:25:52.816Z,29.17
2018-04-11T16:28:20.201Z,28.73
2018-04-11T16:30:47.644Z,28.13
2018-04-11T16:33:15.055Z,28.00
2018-04-11T16:35:42.414Z,27.87
2018-04-11T16:38:09.776Z,28.60
2018-04-11T16:40:37.212Z,29.27
2018-04-11T16:43:04.667Z,26.43
2018-04-11T16:45:32.036Z,28.30
2018-04-11T16:47:59.427Z,27.17
2018-04-11T16:50:26.820Z,26.40
2018-04-11T16:52:54.182Z,27.50
2018-04-11T16:55:21.583Z,28.47
2018-04-11T16:57:48.979Z,27.30
2018-04-11T17:00:17.088Z,28.80
2018-04-11T17:02:44.454Z,27.47
2018-04-11T17:05:11.852Z,26.67
2018-04-11T17:07:39.300Z,27.87
2018-04-11T17:10:06.659Z,27.97
2018-04-11T17:12:34.064Z,29.60
2018-04-11T17:15:01.425Z,31.33
2018-04-11T17:17:28.785Z,29.20
2018-04-11T17:19:56.201Z,27.97
2018-04-11T17:22:29.592Z,29.50
2018-04-11T17:25:03.028Z,29.40
2018-04-11T17:27:36.373Z,29.37
2018-04-11T17:30:09.683Z,30.47
2018-04-11T17:32:37.100Z,28.00
2018-04-11T17:35:04.476Z,29.27
2018-04-11T17:37:31.967Z,29.10
2018-04-11T17:39:59.328Z,29.50
2018-04-11T17:42:26.728Z,28.67
2018-04-11T17:44:54.095Z,30.57
2018-04-11T17:47:21.451Z,28.47
2018-04-11T17:49:48.860Z,28.83
2018-04-11T17:52:16.226Z,30.37
2018-04-11T17:54:43.590Z,30.73
2018-04-11T17:57:10.995Z,30.13
2018-04-11T17:59:38.387Z,30.57
2018-04-11T18:02:05.808Z,30.90
2018-04-11T18:04:33.165Z,30.20
2018-04-11T18:07:00.521Z,30.20
2018-04-11T18:09:27.940Z,31.40
2018-04-11T18:11:55.504Z,29.50
2018-04-11T18:14:22.866Z,30.73
2018-04-11T18:16:50.228Z,30.70
2018-04-11T18:19:17.681Z,30.77
2018-04-11T18:21:45.048Z,29.67
2018-04-11T18:24:12.404Z,31.70
2018-04-11T18:26:39.799Z,29.63
2018-04-11T18:29:07.184Z,31.87
2018-04-11T18:31:34.550Z,31.77
2018-04-11T18:34:01.939Z,33.97
2018-04-11T18:36:29.333Z,32.00
2018-04-11T18:38:56.696Z,33.73
2018-04-11T18:41:24.090Z,33.10
2018-04-11T18:43:51.480Z,32.30
2018-04-11T18:46:18.845Z,32.90
2018-04-11T18:48:46.204Z,32.27
2018-04-11T18:51:13.624Z,34.00
2018-04-11T18:53:40.993Z,33.30
2018-04-11T18:56:08.454Z,31.90
2018-04-11T18:58:35.860Z,32.80
2018-04-11T19:01:03.284Z,34.10
2018-04-11T19:03:30.760Z,32.70
2018-04-11T19:05:58.498Z,34.70
2018-04-11T19:08:25.935Z,33.60
2018-04-11T19:10:53.368Z,34.17
2018-04-11T19:13:20.879Z,34.37
2018-04-11T19:15:48.372Z,33.60
2018-04-11T19:18:15.734Z,33.77
2018-04-11T19:20:43.341Z,34.33
2018-04-11T19:23:10.727Z,33.50
2018-04-11T19:25:41.493Z,34.43
2018-04-11T19:28:08.906Z,34.10
2018-04-11T19:30:36.269Z,35.47
2018-04-11T19:33:03.628Z,35.47
2018-04-11T19:35:31.047Z,36.37
2018-04-11T19:37:58.443Z,34.43
2018-04-11T19:40:25.847Z,36.30
2018-04-11T19:42:53.360Z,36.17
2018-04-11T19:45:20.752Z,36.87
2018-04-11T19:47:48.113Z,36.30
2018-04-11T19:50:15.511Z,36.00
2018-04-11T19:52:42.891Z,35.70
2018-04-11T19:55:10.393Z,36.73
2018-04-11T19:57:37.860Z,35.97
2018-04-11T20:00:05.483Z,35.93
2018-04-11T20:02:32.868Z,36.27
2018-04-11T20:05:00.385Z,36.07
2018-04-11T20:07:27.746Z,36.50
2018-04-11T20:09:55.531Z,37.03
2018-04-11T20:12:22.903Z,36.27
2018-04-11T20:14:50.452Z,37.70
2018-04-11T20:17:17.980Z,38.10
2018-04-11T20:19:45.531Z,37.30
2018-04-11T20:22:12.923Z,38.70
2018-04-11T20:24:40.289Z,38.53
2018-04-11T20:27:07.676Z,37.93
2018-04-11T20:29:35.060Z,36.67
2018-04-11T20:32:02.436Z,37.00
2018-04-11T20:34:29.823Z,36.50
2018-04-11T20:36:57.182Z,37.97
2018-04-11T20:39:24.559Z,37.30
2018-04-11T20:41:52.055Z,37.43
2018-04-11T20:44:19.639Z,37.77
2018-04-11T20:46:47.129Z,39.17
2018-04-11T20:49:14.489Z,36.83
2018-04-11T20:51:41.886Z,38.80
2018-04-11T20:54:09.308Z,38.70
2018-04-11T20:56:36.673Z,38.00
2018-04-11T20:59:04.235Z,38.10
2018-04-11T21:01:31.640Z,37.87
2018-04-11T21:03:59.000Z,37.50
2018-04-11T21:06:26.356Z,38.40
2018-04-11T21:08:53.788Z,36.40
2018-04-11T21:11:21.311Z,39.00
2018-04-11T21:13:48.680Z,36.77
2018-04-11T21:16:16.038Z,36.20
2018-04-11T21:18:43.486Z,38.63
2018-04-11T21:21:10.833Z,36.27
2018-04-11T21:23:38.207Z,39.50
2018-04-11T21:26:05.592Z,36.90
2018-04-11T21:28:32.955Z,37.33
2018-04-11T21:31:00.309Z,37.20
2018-04-11T21:33:27.701Z,38.03
2018-04-11T21:35:55.072Z,35.93
2018-04-11T21:38:22.472Z,37.33
2018-04-11T21:40:49.868Z,36.00
2018-04-11T21:43:17.269Z,36.40
2018-04-11T21:45:45.016Z,35.30
2018-04-11T21:48:12.414Z,35.77
2018-04-11T21:50:39.783Z,36.20
2018-04-11T21:53:07.182Z,35.50
2018-04-11T21:55:34.555Z,34.57
2018-04-11T21:58:01.916Z,33.33
2018-04-11T22:00:29.323Z,37.77
2018-04-11T22:02:56.689Z,34.90
2018-04-11T22:05:24.043Z,35.70
2018-04-11T22:07:51.433Z,36.97
2018-04-11T22:10:18.804Z,35.23
2018-04-11T22:12:46.184Z,36.27
2018-04-11T22:15:13.604Z,35.50
2018-04-11T22:17:40.976Z,35.30
2018-04-11T22:20:08.344Z,35.00
2018-04-11T22:22:35.742Z,32.70
2018-04-11T22:25:03.100Z,33.70
2018-04-11T22:27:30.460Z,33.90
2018-04-11T22:29:57.857Z,35.13
2018-04-11T22:32:25.268Z,31.27
2018-04-11T22:34:52.629Z,32.77
2018-04-11T22:37:20.031Z,34.30
2018-04-11T22:39:47.396Z,32.73
2018-04-11T22:42:14.759Z,32.60
2018-04-11T22:44:42.264Z,32.10
2018-04-11T22:47:09.636Z,32.20
2018-04-11T22:49:36.993Z,31.90
2018-04-11T22:52:04.385Z,30.93
2018-04-11T22:54:31.744Z,32.07
2018-04-11T22:56:59.104Z,31.03
2018-04-11T22:59:26.520Z,32.13
2018-04-11T23:01:53.887Z,30.97
2018-04-11T23:04:21.244Z,31.60
2018-04-11T23:06:48.631Z,32.13
2018-04-11T23:09:16.039Z,31.33
2018-04-11T23:11:43.415Z,30.90
2018-04-11T23:14:10.817Z,31.77
2018-04-11T23:16:38.171Z,30.87
2018-04-11T23:19:05.525Z,31.37
2018-04-11T23:21:33.004Z,30.30
2018-04-11T23:24:00.359Z,31.13
2018-04-11T23:26:27.708Z,30.67
2018-04-11T23:28:55.084Z,30.87
2018-04-11T23:31:22.676Z,32.10
2018-04-11T23:33:50.033Z,30.20
2018-04-11T23:36:17.391Z,30.73
2018-04-11T23:38:44.789Z,30.40
2018-04-11T23:41:12.152Z,32.30
2018-04-11T23:43:39.508Z,31.20
2018-04-11T23:46:06.897Z,32.27
2018-04-11T23:48:34.261Z,30.90
2018-04-11T23:51:01.664Z,31.40
2018-04-11T23:53:29.032Z,32.13
2018-04-11T23:55:56.393Z,33.37
2018-04-11T23:58:23.800Z,31.07
